sensor_id;sensor_type;location;lat;lon;timestamp;temperature;humidity
44509;DHT22;30214;52.246;14.408;2023-02-28T00:00:37;0.10;99.90
44509;DHT22;30214;52.246;14.408;2023-02-28T00:03:06;0.20;99.90
44509;DHT22;30214;52.246;14.408;2023-02-28T00:05:33;0.20;99.90
44509;DHT22;30214;52.246;14.408;2023-02-28T00:08:00;0.30;99.90
44509;DHT22;30214;52.246;14.408;2023-02-28T00:10:29;0.40;99.90
44509;DHT22;30214;52.246;14.408;2023-02-28T00:13:01;0.50;99.90
44509;DHT22;30214;52.246;14.408;2023-02-28T00:15:29;0.40;99.90
44509;DHT22;30214;52.246;14.408;2023-02-28T00:17:57;0.50;99.90
44509;DHT22;30214;52.246;14.408;2023-02-28T00:20:26;0.40;99.90
44509;DHT22;30214;52.246;14.408;2023-02-28T00:22:54;0.30;99.90
44509;DHT22;30214;52.246;14.408;2023-02-28T00:25:22;0.40;99.90
44509;DHT22;30214;52.246;14.408;2023-02-28T00:27:51;0.30;99.90
44509;DHT22;30214;52.246;14.408;2023-02-28T00:30:20;0.20;99.90
44509;DHT22;30214;52.246;14.408;2023-02-28T00:32:50;0.20;99.90
44509;DHT22;30214;52.246;14.408;2023-02-28T00:35:18;0.30;99.90
44509;DHT22;30214;52.246;14.408;2023-02-28T00:37:48;0.20;99.90
44509;DHT22;30214;52.246;14.408;2023-02-28T00:40:15;0.20;99.90
44509;DHT22;30214;52.246;14.408;2023-02-28T00:42:42;0.20;99.90
44509;DHT22;30214;52.246;14.408;2023-02-28T00:45:10;0.30;99.90
44509;DHT22;30214;52.246;14.408;2023-02-28T00:47:37;0.40;99.90
44509;DHT22;30214;52.246;14.408;2023-02-28T00:50:05;0.40;99.90
44509;DHT22;30214;52.246;14.408;2023-02-28T00:52:36;0.50;99.90
44509;DHT22;30214;52.246;14.408;2023-02-28T00:55:05;0.40;99.90
44509;DHT22;30214;52.246;14.408;2023-02-28T00:57:33;0.40;99.90
44509;DHT22;30214;52.246;14.408;2023-02-28T01:00:00;0.40;99.90
44509;DHT22;30214;52.246;14.408;2023-02-28T01:02:28;0.40;99.90
44509;DHT22;30214;52.246;14.408;2023-02-28T01:04:55;0.40;99.90
44509;DHT22;30214;52.246;14.408;2023-02-28T01:07:23;0.50;99.90
44509;DHT22;30214;52.246;14.408;2023-02-28T01:09:50;0.50;99.90
44509;DHT22;30214;52.246;14.408;2023-02-28T01:12:19;0.40;99.90
44509;DHT22;30214;52.246;14.408;2023-02-28T01:14:46;0.50;99.90
44509;DHT22;30214;52.246;14.408;2023-02-28T01:17:13;0.40;99.90
44509;DHT22;30214;52.246;14.408;2023-02-28T01:19:40;0.40;99.90
44509;DHT22;30214;52.246;14.408;2023-02-28T01:22:09;0.40;99.90
44509;DHT22;30214;52.246;14.408;2023-02-28T01:24:37;0.30;99.90
44509;DHT22;30214;52.246;14.408;2023-02-28T01:27:04;0.30;99.90
44509;DHT22;30214;52.246;14.408;2023-02-28T01:29:33;0.30;99.90
44509;DHT22;30214;52.246;14.408;2023-02-28T01:32:00;0.30;99.90
44509;DHT22;30214;52.246;14.408;2023-02-28T01:34:27;0.30;99.90
44509;DHT22;30214;52.246;14.408;2023-02-28T01:36:54;0.20;99.90
44509;DHT22;30214;52.246;14.408;2023-02-28T01:39:21;0.20;99.90
44509;DHT22;30214;52.246;14.408;2023-02-28T01:41:49;0.10;99.90
44509;DHT22;30214;52.246;14.408;2023-02-28T01:44:57;0.10;99.90
44509;DHT22;30214;52.246;14.408;2023-02-28T01:47:29;0.00;99.90
44509;DHT22;30214;52.246;14.408;2023-02-28T01:49:58;0.00;99.90
44509;DHT22;30214;52.246;14.408;2023-02-28T01:52:30;-0.10;99.90
44509;DHT22;30214;52.246;14.408;2023-02-28T01:54:59;-0.20;99.90
44509;DHT22;30214;52.246;14.408;2023-02-28T01:57:32;-0.30;99.90
44509;DHT22;30214;52.246;14.408;2023-02-28T02:00:08;-0.30;99.90
44509;DHT22;30214;52.246;14.408;2023-02-28T02:02:39;-0.30;99.90
44509;DHT22;30214;52.246;14.408;2023-02-28T02:05:10;-0.40;99.90
44509;DHT22;30214;52.246;14.408;2023-02-28T02:07:41;-0.40;99.90
44509;DHT22;30214;52.246;14.408;2023-02-28T02:13:13;-0.50;99.90
44509;DHT22;30214;52.246;14.408;2023-02-28T02:15:54;-0.50;99.90
44509;DHT22;30214;52.246;14.408;2023-02-28T02:18:34;-0.50;99.90
44509;DHT22;30214;52.246;14.408;2023-02-28T02:21:32;-0.60;99.90
44509;DHT22;30214;52.246;14.408;2023-02-28T02:24:58;-0.60;99.90
44509;DHT22;30214;52.246;14.408;2023-02-28T02:27:54;-0.60;99.90
44509;DHT22;30214;52.246;14.408;2023-02-28T02:31:06;-0.60;99.90
44509;DHT22;30214;52.246;14.408;2023-02-28T02:34:30;-0.70;99.90
44509;DHT22;30214;52.246;14.408;2023-02-28T02:37:10;-0.70;99.90
44509;DHT22;30214;52.246;14.408;2023-02-28T02:39:48;-0.80;99.90
44509;DHT22;30214;52.246;14.408;2023-02-28T02:42:23;-0.90;99.90
44509;DHT22;30214;52.246;14.408;2023-02-28T02:44:59;-0.80;99.90
44509;DHT22;30214;52.246;14.408;2023-02-28T02:47:30;-0.80;99.90
44509;DHT22;30214;52.246;14.408;2023-02-28T02:50:03;-0.90;99.90
44509;DHT22;30214;52.246;14.408;2023-02-28T02:52:38;-0.90;99.90
44509;DHT22;30214;52.246;14.408;2023-02-28T02:55:09;-0.90;99.90
44509;DHT22;30214;52.246;14.408;2023-02-28T02:57:43;-1.00;99.90
44509;DHT22;30214;52.246;14.408;2023-02-28T03:00:15;-1.10;99.90
44509;DHT22;30214;52.246;14.408;2023-02-28T03:02:45;-1.10;99.90
44509;DHT22;30214;52.246;14.408;2023-02-28T03:05:19;-1.10;99.90
44509;DHT22;30214;52.246;14.408;2023-02-28T03:07:47;-1.10;99.90
44509;DHT22;30214;52.246;14.408;2023-02-28T03:10:29;-1.10;99.90
44509;DHT22;30214;52.246;14.408;2023-02-28T03:13:11;-1.10;99.90
44509;DHT22;30214;52.246;14.408;2023-02-28T03:15:50;-1.20;99.90
44509;DHT22;30214;52.246;14.408;2023-02-28T03:18:27;-1.20;99.90
44509;DHT22;30214;52.246;14.408;2023-02-28T03:21:08;-1.30;99.90
44509;DHT22;30214;52.246;14.408;2023-02-28T03:23:45;-1.30;99.90
44509;DHT22;30214;52.246;14.408;2023-02-28T03:26:19;-1.30;99.90
44509;DHT22;30214;52.246;14.408;2023-02-28T03:28:55;-1.40;99.90
44509;DHT22;30214;52.246;14.408;2023-02-28T03:31:29;-1.60;99.90
44509;DHT22;30214;52.246;14.408;2023-02-28T03:34:01;-1.60;99.90
44509;DHT22;30214;52.246;14.408;2023-02-28T03:36:35;-1.70;99.90
44509;DHT22;30214;52.246;14.408;2023-02-28T03:39:13;-1.70;99.90
44509;DHT22;30214;52.246;14.408;2023-02-28T03:41:44;-1.70;99.90
44509;DHT22;30214;52.246;14.408;2023-02-28T03:44:18;-1.70;99.90
44509;DHT22;30214;52.246;14.408;2023-02-28T03:46:51;-1.70;99.90
44509;DHT22;30214;52.246;14.408;2023-02-28T03:49:24;-1.70;99.90
44509;DHT22;30214;52.246;14.408;2023-02-28T03:51:54;-1.70;99.90
44509;DHT22;30214;52.246;14.408;2023-02-28T03:54:26;-1.70;99.90
44509;DHT22;30214;52.246;14.408;2023-02-28T03:56:59;-1.70;99.90
44509;DHT22;30214;52.246;14.408;2023-02-28T03:59:34;-1.70;99.90
44509;DHT22;30214;52.246;14.408;2023-02-28T04:02:04;-1.70;99.90
44509;DHT22;30214;52.246;14.408;2023-02-28T04:04:31;-1.80;99.90
44509;DHT22;30214;52.246;14.408;2023-02-28T04:07:06;-1.80;99.90
44509;DHT22;30214;52.246;14.408;2023-02-28T04:09:34;-1.90;99.90
44509;DHT22;30214;52.246;14.408;2023-02-28T04:12:01;-1.90;99.90
44509;DHT22;30214;52.246;14.408;2023-02-28T04:14:29;-1.90;99.90
44509;DHT22;30214;52.246;14.408;2023-02-28T04:16:56;-1.90;99.90
44509;DHT22;30214;52.246;14.408;2023-02-28T04:19:23;-2.00;99.90
44509;DHT22;30214;52.246;14.408;2023-02-28T04:21:52;-2.00;99.90
44509;DHT22;30214;52.246;14.408;2023-02-28T04:24:22;-2.10;99.90
44509;DHT22;30214;52.246;14.408;2023-02-28T04:26:52;-2.10;99.90
44509;DHT22;30214;52.246;14.408;2023-02-28T04:29:23;-2.10;99.90
44509;DHT22;30214;52.246;14.408;2023-02-28T04:31:51;-2.10;99.90
44509;DHT22;30214;52.246;14.408;2023-02-28T04:34:19;-2.20;99.90
44509;DHT22;30214;52.246;14.408;2023-02-28T04:36:47;-2.20;99.90
44509;DHT22;30214;52.246;14.408;2023-02-28T04:39:16;-2.30;99.90
44509;DHT22;30214;52.246;14.408;2023-02-28T04:41:45;-2.30;99.90
44509;DHT22;30214;52.246;14.408;2023-02-28T04:44:13;-2.30;99.90
44509;DHT22;30214;52.246;14.408;2023-02-28T04:46:40;-2.30;99.90
44509;DHT22;30214;52.246;14.408;2023-02-28T04:49:08;-2.30;99.90
44509;DHT22;30214;52.246;14.408;2023-02-28T04:51:37;-2.30;99.90
44509;DHT22;30214;52.246;14.408;2023-02-28T04:54:04;-2.30;99.90
44509;DHT22;30214;52.246;14.408;2023-02-28T04:56:32;-2.40;99.90
44509;DHT22;30214;52.246;14.408;2023-02-28T04:59:00;-2.40;99.90
44509;DHT22;30214;52.246;14.408;2023-02-28T05:01:29;-2.40;99.90
44509;DHT22;30214;52.246;14.408;2023-02-28T05:03:59;-2.50;99.90
44509;DHT22;30214;52.246;14.408;2023-02-28T05:06:28;-2.50;99.90
44509;DHT22;30214;52.246;14.408;2023-02-28T05:08:57;-2.50;99.90
44509;DHT22;30214;52.246;14.408;2023-02-28T05:11:26;-2.50;99.90
44509;DHT22;30214;52.246;14.408;2023-02-28T05:14:01;-2.50;99.90
44509;DHT22;30214;52.246;14.408;2023-02-28T05:16:29;-2.50;99.90
44509;DHT22;30214;52.246;14.408;2023-02-28T05:18:56;-2.50;99.90
44509;DHT22;30214;52.246;14.408;2023-02-28T05:21:27;-2.50;99.90
44509;DHT22;30214;52.246;14.408;2023-02-28T05:23:59;-2.50;99.90
44509;DHT22;30214;52.246;14.408;2023-02-28T05:26:27;-2.50;99.90
44509;DHT22;30214;52.246;14.408;2023-02-28T05:28:54;-2.60;99.90
44509;DHT22;30214;52.246;14.408;2023-02-28T05:31:23;-2.60;99.90
44509;DHT22;30214;52.246;14.408;2023-02-28T05:33:50;-2.60;99.90
44509;DHT22;30214;52.246;14.408;2023-02-28T05:36:17;-2.60;99.90
44509;DHT22;30214;52.246;14.408;2023-02-28T05:38:46;-2.70;99.90
44509;DHT22;30214;52.246;14.408;2023-02-28T05:41:15;-2.70;99.90
44509;DHT22;30214;52.246;14.408;2023-02-28T05:43:42;-2.70;99.90
44509;DHT22;30214;52.246;14.408;2023-02-28T05:46:11;-2.70;99.90
44509;DHT22;30214;52.246;14.408;2023-02-28T05:48:41;-2.70;99.90
44509;DHT22;30214;52.246;14.408;2023-02-28T05:51:12;-2.70;99.90
44509;DHT22;30214;52.246;14.408;2023-02-28T05:53:39;-2.80;99.90
44509;DHT22;30214;52.246;14.408;2023-02-28T05:56:06;-2.70;99.90
44509;DHT22;30214;52.246;14.408;2023-02-28T05:58:34;-2.80;99.90
44509;DHT22;30214;52.246;14.408;2023-02-28T06:01:21;-2.70;99.90
44509;DHT22;30214;52.246;14.408;2023-02-28T06:03:51;-2.70;99.90
44509;DHT22;30214;52.246;14.408;2023-02-28T06:06:19;-2.70;99.90
44509;DHT22;30214;52.246;14.408;2023-02-28T06:08:46;-2.80;99.90
44509;DHT22;30214;52.246;14.408;2023-02-28T06:11:13;-2.90;99.90
44509;DHT22;30214;52.246;14.408;2023-02-28T06:13:41;-2.90;99.90
44509;DHT22;30214;52.246;14.408;2023-02-28T06:16:09;-2.80;99.90
44509;DHT22;30214;52.246;14.408;2023-02-28T06:18:37;-2.90;99.90
44509;DHT22;30214;52.246;14.408;2023-02-28T06:21:05;-2.80;99.90
44509;DHT22;30214;52.246;14.408;2023-02-28T06:23:34;-2.80;99.90
44509;DHT22;30214;52.246;14.408;2023-02-28T06:26:01;-2.70;99.90
44509;DHT22;30214;52.246;14.408;2023-02-28T06:28:28;-2.70;99.90
44509;DHT22;30214;52.246;14.408;2023-02-28T06:30:55;-2.60;99.90
44509;DHT22;30214;52.246;14.408;2023-02-28T06:33:22;-2.50;99.90
44509;DHT22;30214;52.246;14.408;2023-02-28T06:35:50;-2.50;99.90
44509;DHT22;30214;52.246;14.408;2023-02-28T06:38:20;-2.50;99.90
44509;DHT22;30214;52.246;14.408;2023-02-28T06:40:53;-2.50;99.90
44509;DHT22;30214;52.246;14.408;2023-02-28T06:43:20;-2.40;99.90
44509;DHT22;30214;52.246;14.408;2023-02-28T06:45:48;-2.40;99.90
44509;DHT22;30214;52.246;14.408;2023-02-28T06:48:15;-2.40;99.90
44509;DHT22;30214;52.246;14.408;2023-02-28T06:50:42;-2.40;99.90
44509;DHT22;30214;52.246;14.408;2023-02-28T06:53:09;-2.30;99.90
44509;DHT22;30214;52.246;14.408;2023-02-28T06:55:39;-2.30;99.90
44509;DHT22;30214;52.246;14.408;2023-02-28T06:58:06;-2.20;99.90
44509;DHT22;30214;52.246;14.408;2023-02-28T07:00:40;-2.20;99.90
44509;DHT22;30214;52.246;14.408;2023-02-28T07:03:07;-2.40;99.90
44509;DHT22;30214;52.246;14.408;2023-02-28T07:05:35;-2.40;99.90
44509;DHT22;30214;52.246;14.408;2023-02-28T07:08:02;-2.40;99.90
44509;DHT22;30214;52.246;14.408;2023-02-28T07:10:30;-2.40;99.90
44509;DHT22;30214;52.246;14.408;2023-02-28T07:12:59;-2.40;99.90
44509;DHT22;30214;52.246;14.408;2023-02-28T07:15:27;-2.30;99.90
44509;DHT22;30214;52.246;14.408;2023-02-28T07:17:54;-2.20;99.90
44509;DHT22;30214;52.246;14.408;2023-02-28T07:20:22;-2.10;99.90
44509;DHT22;30214;52.246;14.408;2023-02-28T07:22:49;-1.90;99.90
44509;DHT22;30214;52.246;14.408;2023-02-28T07:25:21;-1.60;99.90
44509;DHT22;30214;52.246;14.408;2023-02-28T07:27:49;-1.40;99.90
44509;DHT22;30214;52.246;14.408;2023-02-28T07:30:18;-1.20;99.90
44509;DHT22;30214;52.246;14.408;2023-02-28T07:32:45;-1.00;99.90
44509;DHT22;30214;52.246;14.408;2023-02-28T07:35:12;-0.80;99.90
44509;DHT22;30214;52.246;14.408;2023-02-28T07:37:41;-0.80;99.90
44509;DHT22;30214;52.246;14.408;2023-02-28T07:40:10;-0.60;99.90
44509;DHT22;30214;52.246;14.408;2023-02-28T07:42:38;-0.40;99.90
44509;DHT22;30214;52.246;14.408;2023-02-28T07:45:08;-0.10;99.90
44509;DHT22;30214;52.246;14.408;2023-02-28T07:47:38;0.10;99.90
44509;DHT22;30214;52.246;14.408;2023-02-28T07:50:06;0.20;99.90
44509;DHT22;30214;52.246;14.408;2023-02-28T07:52:34;0.10;99.90
44509;DHT22;30214;52.246;14.408;2023-02-28T07:55:03;0.20;99.90
44509;DHT22;30214;52.246;14.408;2023-02-28T07:57:31;0.30;99.90
44509;DHT22;30214;52.246;14.408;2023-02-28T07:59:58;0.40;99.90
44509;DHT22;30214;52.246;14.408;2023-02-28T08:02:25;0.40;99.90
44509;DHT22;30214;52.246;14.408;2023-02-28T08:04:54;0.30;99.90
44509;DHT22;30214;52.246;14.408;2023-02-28T08:07:21;0.40;99.90
44509;DHT22;30214;52.246;14.408;2023-02-28T08:09:49;0.40;99.90
44509;DHT22;30214;52.246;14.408;2023-02-28T08:12:16;0.40;99.90
44509;DHT22;30214;52.246;14.408;2023-02-28T08:14:43;0.40;99.90
44509;DHT22;30214;52.246;14.408;2023-02-28T08:17:10;0.40;99.90
44509;DHT22;30214;52.246;14.408;2023-02-28T08:19:37;0.60;99.90
44509;DHT22;30214;52.246;14.408;2023-02-28T08:22:06;0.70;99.90
44509;DHT22;30214;52.246;14.408;2023-02-28T08:24:33;0.70;99.90
44509;DHT22;30214;52.246;14.408;2023-02-28T08:27:00;0.70;99.90
44509;DHT22;30214;52.246;14.408;2023-02-28T08:29:27;0.90;99.90
44509;DHT22;30214;52.246;14.408;2023-02-28T08:31:55;1.00;99.90
44509;DHT22;30214;52.246;14.408;2023-02-28T08:34:24;1.20;99.90
44509;DHT22;30214;52.246;14.408;2023-02-28T08:36:51;1.30;99.90
44509;DHT22;30214;52.246;14.408;2023-02-28T08:39:19;1.40;99.90
44509;DHT22;30214;52.246;14.408;2023-02-28T08:41:47;1.40;99.90
44509;DHT22;30214;52.246;14.408;2023-02-28T08:44:14;1.50;99.90
44509;DHT22;30214;52.246;14.408;2023-02-28T08:46:41;1.60;99.90
44509;DHT22;30214;52.246;14.408;2023-02-28T08:49:10;1.60;99.90
44509;DHT22;30214;52.246;14.408;2023-02-28T08:51:38;1.80;99.90
44509;DHT22;30214;52.246;14.408;2023-02-28T08:54:05;1.90;99.90
44509;DHT22;30214;52.246;14.408;2023-02-28T08:56:34;2.00;99.90
44509;DHT22;30214;52.246;14.408;2023-02-28T08:59:01;1.90;99.90
44509;DHT22;30214;52.246;14.408;2023-02-28T09:01:29;1.90;99.90
44509;DHT22;30214;52.246;14.408;2023-02-28T09:03:57;2.10;99.90
44509;DHT22;30214;52.246;14.408;2023-02-28T09:06:26;2.10;98.90
44509;DHT22;30214;52.246;14.408;2023-02-28T09:08:56;2.20;97.40
44509;DHT22;30214;52.246;14.408;2023-02-28T09:11:24;2.20;98.10
44509;DHT22;30214;52.246;14.408;2023-02-28T09:13:53;2.40;99.90
44509;DHT22;30214;52.246;14.408;2023-02-28T09:16:21;2.50;96.50
44509;DHT22;30214;52.246;14.408;2023-02-28T09:18:48;2.50;97.20
44509;DHT22;30214;52.246;14.408;2023-02-28T09:21:17;2.70;95.90
44509;DHT22;30214;52.246;14.408;2023-02-28T09:23:46;2.70;93.80
44509;DHT22;30214;52.246;14.408;2023-02-28T09:26:15;2.70;95.70
44509;DHT22;30214;52.246;14.408;2023-02-28T09:28:44;2.90;93.70
44509;DHT22;30214;52.246;14.408;2023-02-28T09:31:15;2.80;92.60
44509;DHT22;30214;52.246;14.408;2023-02-28T09:33:46;2.90;90.60
44509;DHT22;30214;52.246;14.408;2023-02-28T09:36:13;3.00;91.20
44509;DHT22;30214;52.246;14.408;2023-02-28T09:38:40;3.00;90.20
44509;DHT22;30214;52.246;14.408;2023-02-28T09:41:12;2.90;91.50
44509;DHT22;30214;52.246;14.408;2023-02-28T09:43:44;2.90;90.40
44509;DHT22;30214;52.246;14.408;2023-02-28T09:46:27;3.10;83.10
44509;DHT22;30214;52.246;14.408;2023-02-28T09:48:57;3.20;83.10
44509;DHT22;30214;52.246;14.408;2023-02-28T09:51:36;3.10;79.70
44509;DHT22;30214;52.246;14.408;2023-02-28T09:54:14;3.20;88.60
44509;DHT22;30214;52.246;14.408;2023-02-28T09:56:45;3.40;77.70
44509;DHT22;30214;52.246;14.408;2023-02-28T09:59:26;3.50;83.60
44509;DHT22;30214;52.246;14.408;2023-02-28T10:02:08;3.60;78.40
44509;DHT22;30214;52.246;14.408;2023-02-28T10:04:48;3.60;78.50
44509;DHT22;30214;52.246;14.408;2023-02-28T10:07:33;3.40;76.10
44509;DHT22;30214;52.246;14.408;2023-02-28T10:10:19;3.40;79.00
44509;DHT22;30214;52.246;14.408;2023-02-28T10:12:48;3.40;82.80
44509;DHT22;30214;52.246;14.408;2023-02-28T10:15:17;3.50;83.30
44509;DHT22;30214;52.246;14.408;2023-02-28T10:17:51;3.60;78.50
44509;DHT22;30214;52.246;14.408;2023-02-28T10:20:22;3.80;83.10
44509;DHT22;30214;52.246;14.408;2023-02-28T10:22:58;3.70;75.90
44509;DHT22;30214;52.246;14.408;2023-02-28T10:25:34;3.60;75.00
44509;DHT22;30214;52.246;14.408;2023-02-28T10:28:10;3.70;76.50
44509;DHT22;30214;52.246;14.408;2023-02-28T10:30:40;3.70;74.80
44509;DHT22;30214;52.246;14.408;2023-02-28T10:33:19;3.50;75.60
44509;DHT22;30214;52.246;14.408;2023-02-28T10:35:49;3.60;77.90
44509;DHT22;30214;52.246;14.408;2023-02-28T10:38:18;3.70;77.70
44509;DHT22;30214;52.246;14.408;2023-02-28T10:40:47;3.70;75.50
44509;DHT22;30214;52.246;14.408;2023-02-28T10:43:20;3.70;76.40
44509;DHT22;30214;52.246;14.408;2023-02-28T10:45:58;3.80;84.20
44509;DHT22;30214;52.246;14.408;2023-02-28T10:48:33;3.90;76.30
44509;DHT22;30214;52.246;14.408;2023-02-28T10:51:02;3.60;75.30
44509;DHT22;30214;52.246;14.408;2023-02-28T10:53:35;3.60;79.50
44509;DHT22;30214;52.246;14.408;2023-02-28T10:56:12;3.70;75.90
44509;DHT22;30214;52.246;14.408;2023-02-28T10:58:48;3.80;78.30
44509;DHT22;30214;52.246;14.408;2023-02-28T11:01:18;3.80;77.30
44509;DHT22;30214;52.246;14.408;2023-02-28T11:03:48;3.80;76.50
44509;DHT22;30214;52.246;14.408;2023-02-28T11:06:19;3.80;80.70
44509;DHT22;30214;52.246;14.408;2023-02-28T11:08:50;3.70;78.60
44509;DHT22;30214;52.246;14.408;2023-02-28T11:11:20;3.70;81.50
44509;DHT22;30214;52.246;14.408;2023-02-28T11:13:50;3.90;82.80
44509;DHT22;30214;52.246;14.408;2023-02-28T11:16:19;4.00;80.80
44509;DHT22;30214;52.246;14.408;2023-02-28T11:18:50;4.00;79.80
44509;DHT22;30214;52.246;14.408;2023-02-28T11:21:22;4.00;79.80
44509;DHT22;30214;52.246;14.408;2023-02-28T11:23:54;4.20;85.80
44509;DHT22;30214;52.246;14.408;2023-02-28T11:26:36;4.20;83.30
44509;DHT22;30214;52.246;14.408;2023-02-28T11:29:17;4.20;81.00
44509;DHT22;30214;52.246;14.408;2023-02-28T11:32:03;4.20;79.00
44509;DHT22;30214;52.246;14.408;2023-02-28T11:34:41;4.20;78.70
44509;DHT22;30214;52.246;14.408;2023-02-28T11:37:12;4.20;84.10
44509;DHT22;30214;52.246;14.408;2023-02-28T11:39:41;4.30;79.40
44509;DHT22;30214;52.246;14.408;2023-02-28T11:42:28;4.30;78.80
44509;DHT22;30214;52.246;14.408;2023-02-28T11:45:11;4.30;82.00
44509;DHT22;30214;52.246;14.408;2023-02-28T11:47:48;4.30;80.70
44509;DHT22;30214;52.246;14.408;2023-02-28T11:50:36;4.30;79.40
44509;DHT22;30214;52.246;14.408;2023-02-28T11:53:14;4.30;82.80
44509;DHT22;30214;52.246;14.408;2023-02-28T11:55:49;4.30;77.60
44509;DHT22;30214;52.246;14.408;2023-02-28T11:58:36;4.30;77.10
44509;DHT22;30214;52.246;14.408;2023-02-28T12:01:21;4.30;78.70
44509;DHT22;30214;52.246;14.408;2023-02-28T12:04:03;4.20;76.90
44509;DHT22;30214;52.246;14.408;2023-02-28T12:06:40;4.30;77.80
44509;DHT22;30214;52.246;14.408;2023-02-28T12:09:27;4.50;80.50
44509;DHT22;30214;52.246;14.408;2023-02-28T12:12:06;4.40;75.30
44509;DHT22;30214;52.246;14.408;2023-02-28T12:14:57;4.30;77.40
44509;DHT22;30214;52.246;14.408;2023-02-28T12:17:48;4.30;78.20
44509;DHT22;30214;52.246;14.408;2023-02-28T12:20:27;4.40;75.60
44509;DHT22;30214;52.246;14.408;2023-02-28T12:23:14;4.30;75.20
44509;DHT22;30214;52.246;14.408;2023-02-28T12:26:04;4.40;77.00
44509;DHT22;30214;52.246;14.408;2023-02-28T12:28:39;4.50;76.60
44509;DHT22;30214;52.246;14.408;2023-02-28T12:31:11;4.60;76.60
44509;DHT22;30214;52.246;14.408;2023-02-28T12:33:45;4.60;73.00
44509;DHT22;30214;52.246;14.408;2023-02-28T12:36:17;4.40;75.20
44509;DHT22;30214;52.246;14.408;2023-02-28T12:38:52;4.30;74.80
44509;DHT22;30214;52.246;14.408;2023-02-28T12:41:26;4.40;76.20
44509;DHT22;30214;52.246;14.408;2023-02-28T12:44:00;4.50;73.00
44509;DHT22;30214;52.246;14.408;2023-02-28T12:46:33;4.50;74.50
44509;DHT22;30214;52.246;14.408;2023-02-28T12:49:06;4.70;77.00
44509;DHT22;30214;52.246;14.408;2023-02-28T12:51:35;4.80;71.90
44509;DHT22;30214;52.246;14.408;2023-02-28T12:54:12;4.70;75.60
44509;DHT22;30214;52.246;14.408;2023-02-28T12:56:48;4.70;76.90
44509;DHT22;30214;52.246;14.408;2023-02-28T12:59:25;4.60;76.30
44509;DHT22;30214;52.246;14.408;2023-02-28T13:02:02;4.60;76.10
44509;DHT22;30214;52.246;14.408;2023-02-28T13:04:55;4.60;74.40
44509;DHT22;30214;52.246;14.408;2023-02-28T13:07:56;4.60;74.30
44509;DHT22;30214;52.246;14.408;2023-02-28T13:10:46;4.50;74.00
44509;DHT22;30214;52.246;14.408;2023-02-28T13:13:18;4.60;75.20
44509;DHT22;30214;52.246;14.408;2023-02-28T13:15:59;4.70;75.30
44509;DHT22;30214;52.246;14.408;2023-02-28T13:18:31;4.70;75.70
44509;DHT22;30214;52.246;14.408;2023-02-28T13:21:01;4.80;75.10
44509;DHT22;30214;52.246;14.408;2023-02-28T13:24:02;4.80;74.50
44509;DHT22;30214;52.246;14.408;2023-02-28T13:29:58;4.90;74.40
44509;DHT22;30214;52.246;14.408;2023-02-28T13:32:36;5.00;73.30
44509;DHT22;30214;52.246;14.408;2023-02-28T13:35:38;5.60;77.10
44509;DHT22;30214;52.246;14.408;2023-02-28T13:38:35;5.40;71.00
44509;DHT22;30214;52.246;14.408;2023-02-28T13:41:41;5.30;75.90
44509;DHT22;30214;52.246;14.408;2023-02-28T13:44:14;5.20;72.90
44509;DHT22;30214;52.246;14.408;2023-02-28T13:47:23;5.10;73.50
44509;DHT22;30214;52.246;14.408;2023-02-28T13:49:52;4.90;73.40
44509;DHT22;30214;52.246;14.408;2023-02-28T13:52:24;4.80;73.10
44509;DHT22;30214;52.246;14.408;2023-02-28T13:54:58;4.70;75.90
44509;DHT22;30214;52.246;14.408;2023-02-28T13:57:44;4.80;71.50
44509;DHT22;30214;52.246;14.408;2023-02-28T14:00:30;4.90;74.20
44509;DHT22;30214;52.246;14.408;2023-02-28T14:03:27;5.00;71.20
44509;DHT22;30214;52.246;14.408;2023-02-28T14:06:18;4.90;73.90
44509;DHT22;30214;52.246;14.408;2023-02-28T14:08:54;5.00;71.40
44509;DHT22;30214;52.246;14.408;2023-02-28T14:11:28;5.10;71.80
44509;DHT22;30214;52.246;14.408;2023-02-28T14:13:58;5.10;71.60
44509;DHT22;30214;52.246;14.408;2023-02-28T14:16:27;4.90;71.30
44509;DHT22;30214;52.246;14.408;2023-02-28T14:19:11;4.90;72.60
44509;DHT22;30214;52.246;14.408;2023-02-28T14:21:47;4.80;70.80
44509;DHT22;30214;52.246;14.408;2023-02-28T14:24:40;4.80;71.90
44509;DHT22;30214;52.246;14.408;2023-02-28T14:27:32;4.80;71.10
44509;DHT22;30214;52.246;14.408;2023-02-28T14:33:25;4.80;72.10
44509;DHT22;30214;52.246;14.408;2023-02-28T14:36:07;4.80;73.90
44509;DHT22;30214;52.246;14.408;2023-02-28T14:38:42;4.80;71.50
44509;DHT22;30214;52.246;14.408;2023-02-28T14:41:20;4.70;72.10
44509;DHT22;30214;52.246;14.408;2023-02-28T14:43:55;4.70;75.70
44509;DHT22;30214;52.246;14.408;2023-02-28T14:46:27;4.80;75.50
44509;DHT22;30214;52.246;14.408;2023-02-28T14:48:57;4.80;75.20
44509;DHT22;30214;52.246;14.408;2023-02-28T14:51:25;4.70;73.60
44509;DHT22;30214;52.246;14.408;2023-02-28T14:53:57;4.70;74.80
44509;DHT22;30214;52.246;14.408;2023-02-28T14:56:30;4.70;73.90
44509;DHT22;30214;52.246;14.408;2023-02-28T14:59:04;4.70;74.10
44509;DHT22;30214;52.246;14.408;2023-02-28T15:01:32;4.70;75.70
44509;DHT22;30214;52.246;14.408;2023-02-28T15:04:05;4.60;75.10
44509;DHT22;30214;52.246;14.408;2023-02-28T15:06:34;4.70;77.90
44509;DHT22;30214;52.246;14.408;2023-02-28T15:09:14;4.60;81.60
44509;DHT22;30214;52.246;14.408;2023-02-28T15:11:46;4.60;79.00
44509;DHT22;30214;52.246;14.408;2023-02-28T15:14:17;4.60;79.90
44509;DHT22;30214;52.246;14.408;2023-02-28T15:16:50;4.60;80.30
44509;DHT22;30214;52.246;14.408;2023-02-28T15:19:22;4.70;82.00
44509;DHT22;30214;52.246;14.408;2023-02-28T15:21:54;4.80;76.70
44509;DHT22;30214;52.246;14.408;2023-02-28T15:24:32;4.80;78.90
44509;DHT22;30214;52.246;14.408;2023-02-28T15:27:04;4.70;79.50
44509;DHT22;30214;52.246;14.408;2023-02-28T15:29:41;4.70;84.00
44509;DHT22;30214;52.246;14.408;2023-02-28T15:32:24;4.70;83.00
44509;DHT22;30214;52.246;14.408;2023-02-28T15:34:54;4.70;84.90
44509;DHT22;30214;52.246;14.408;2023-02-28T15:37:28;4.80;84.30
44509;DHT22;30214;52.246;14.408;2023-02-28T15:40:07;4.70;81.40
44509;DHT22;30214;52.246;14.408;2023-02-28T15:42:39;4.50;83.60
44509;DHT22;30214;52.246;14.408;2023-02-28T15:45:26;4.50;82.30
44509;DHT22;30214;52.246;14.408;2023-02-28T15:47:56;4.40;85.20
44509;DHT22;30214;52.246;14.408;2023-02-28T15:50:27;4.40;85.50
44509;DHT22;30214;52.246;14.408;2023-02-28T15:52:56;4.30;87.60
44509;DHT22;30214;52.246;14.408;2023-02-28T15:55:26;4.20;87.60
44509;DHT22;30214;52.246;14.408;2023-02-28T15:57:57;4.10;89.40
44509;DHT22;30214;52.246;14.408;2023-02-28T16:00:31;4.00;90.10
44509;DHT22;30214;52.246;14.408;2023-02-28T16:02:59;3.90;91.20
44509;DHT22;30214;52.246;14.408;2023-02-28T16:05:27;3.90;90.90
44509;DHT22;30214;52.246;14.408;2023-02-28T16:08:00;3.90;90.20
44509;DHT22;30214;52.246;14.408;2023-02-28T16:10:28;3.90;91.40